createdAt,value
2019-04-20T00:00:59.909Z,41.51
2019-04-20T00:03:50.689Z,41.87
2019-04-20T00:06:47.949Z,42.68
2019-04-20T00:09:34.605Z,42.90
2019-04-20T00:12:34.340Z,43.28
2019-04-20T00:15:11.284Z,43.61
2019-04-20T00:18:04.386Z,43.66
2019-04-20T00:21:05.521Z,44.21
2019-04-20T00:23:54.878Z,44.03
2019-04-20T00:27:09.227Z,43.89
2019-04-20T00:29:49.381Z,43.44
2019-04-20T00:32:44.019Z,43.18
2019-04-20T00:35:14.737Z,43.82
2019-04-20T00:38:03.514Z,44.02
2019-04-20T00:40:58.329Z,43.59
2019-04-20T00:43:44.161Z,44.54
2019-04-20T00:46:48.621Z,44.58
2019-04-20T00:49:41.823Z,44.76
2019-04-20T00:52:41.226Z,45.35
2019-04-20T00:55:04.223Z,45.81
2019-04-20T00:57:59.779Z,46.19
2019-04-20T01:01:07.176Z,45.37
2019-04-20T01:03:49.680Z,46.15
2019-04-20T01:07:01.219Z,46.08
2019-04-20T01:10:09.204Z,46.73
2019-04-20T01:13:06.059Z,46.40
2019-04-20T01:15:57.562Z,46.46
2019-04-20T01:18:39.027Z,46.96
2019-04-20T01:21:30.402Z,47.44
2019-04-20T01:24:24.770Z,47.07
2019-04-20T01:27:25.855Z,46.30
2019-04-20T01:30:07.485Z,46.92
2019-04-20T01:33:00.168Z,47.54
2019-04-20T01:35:53.168Z,47.62
2019-04-20T01:38:44.765Z,47.05
2019-04-20T01:41:20.328Z,47.06
2019-04-20T01:44:09.308Z,46.45
2019-04-20T01:47:01.218Z,46.36
2019-04-20T01:49:54.634Z,46.25
2019-04-20T01:52:50.807Z,47.13
2019-04-20T01:55:49.368Z,46.84
2019-04-20T01:58:58.171Z,47.62
2019-04-20T02:02:03.194Z,48.09
2019-04-20T02:04:53.776Z,48.46
2019-04-20T02:07:47.567Z,49.06
2019-04-20T02:10:41.682Z,49.00
2019-04-20T02:13:26.443Z,49.20
2019-04-20T02:16:22.872Z,49.49
2019-04-20T02:19:18.705Z,49.90
2019-04-20T02:22:07.656Z,50.30
2019-04-20T02:24:44.831Z,49.87
2019-04-20T02:27:38.643Z,49.68
2019-04-20T02:31:04.408Z,49.90
2019-04-20T02:33:50.531Z,50.03
2019-04-20T02:37:09.611Z,50.04
2019-04-20T02:40:12.398Z,49.88
2019-04-20T02:45:44.217Z,49.98
2019-04-20T02:48:39.395Z,49.46
2019-04-20T02:51:39.374Z,49.48
2019-04-20T02:54:26.510Z,49.68
2019-04-20T03:00:03.273Z,50.22
2019-04-20T03:02:41.237Z,49.78
2019-04-20T03:05:30.823Z,49.94
2019-04-20T03:08:22.218Z,50.50
2019-04-20T03:11:49.880Z,50.47
2019-04-20T03:14:24.006Z,51.15
2019-04-20T03:17:22.601Z,51.74
2019-04-20T03:20:03.510Z,51.48
2019-04-20T03:23:36.179Z,51.68
2019-04-20T03:26:17.622Z,52.06
2019-04-20T03:29:16.713Z,51.50
2019-04-20T03:33:00.177Z,50.62
2019-04-20T03:35:17.499Z,50.10
2019-04-20T03:37:58.703Z,50.21
2019-04-20T03:40:40.173Z,50.46
2019-04-20T03:43:20.194Z,50.58
2019-04-20T03:46:12.763Z,51.03
2019-04-20T03:49:20.064Z,51.55
2019-04-20T03:52:34.273Z,51.55
2019-04-20T03:55:36.678Z,51.36
2019-04-20T03:58:33.502Z,50.26
2019-04-20T04:02:08.731Z,50.09
2019-04-20T04:04:51.782Z,50.45
2019-04-20T04:07:32.317Z,51.17
2019-04-20T04:10:50.315Z,51.56
2019-04-20T04:13:24.943Z,52.03
2019-04-20T04:16:17.288Z,52.29
2019-04-20T04:19:13.043Z,52.39
2019-04-20T04:22:23.532Z,52.11
2019-04-20T04:25:12.336Z,52.15
2019-04-20T04:28:09.764Z,52.31
2019-04-20T04:30:59.446Z,52.33
2019-04-20T04:36:59.363Z,53.18
2019-04-20T04:39:49.051Z,52.89
2019-04-20T04:42:45.542Z,52.42
2019-04-20T04:45:13.934Z,52.57
2019-04-20T04:48:06.759Z,53.18
2019-04-20T04:51:02.449Z,53.02
2019-04-20T04:53:57.530Z,52.68
2019-04-20T04:56:54.628Z,51.99
2019-04-20T04:59:44.567Z,52.20
2019-04-20T05:02:39.317Z,52.62
2019-04-20T05:06:03.511Z,53.12
2019-04-20T05:08:43.599Z,53.27
2019-04-20T05:11:27.921Z,53.22
2019-04-20T05:14:24.397Z,52.97
2019-04-20T05:17:48.325Z,52.63
2019-04-20T05:20:41.716Z,53.16
2019-04-20T05:23:41.392Z,53.15
2019-04-20T05:27:01.738Z,52.96
2019-04-20T05:29:31.905Z,52.51
2019-04-20T05:32:29.467Z,52.96
2019-04-20T05:35:44.416Z,52.79
2019-04-20T05:38:43.131Z,52.63
2019-04-20T05:41:26.532Z,52.46
2019-04-20T05:44:25.791Z,52.50
2019-04-20T05:47:21.751Z,53.06
2019-04-20T05:50:04.974Z,52.57
2019-04-20T05:53:22.101Z,51.92
2019-04-20T05:56:02.618Z,51.46
2019-04-20T05:58:56.627Z,51.15
2019-04-20T06:01:52.706Z,50.57
2019-04-20T06:04:54.588Z,51.02
2019-04-20T06:07:29.688Z,50.94
2019-04-20T06:10:22.836Z,50.18
2019-04-20T06:13:00.554Z,50.77
2019-04-20T06:16:08.903Z,50.74
2019-04-20T06:19:06.468Z,50.11
2019-04-20T06:22:03.909Z,50.08
2019-04-20T06:25:39.537Z,49.68
2019-04-20T06:28:10.513Z,49.53
2019-04-20T06:30:52.850Z,49.04
2019-04-20T06:37:16.134Z,48.34
2019-04-20T06:40:22.485Z,47.90
2019-04-20T06:42:50.391Z,47.36
2019-04-20T06:45:45.881Z,47.46
2019-04-20T06:48:36.974Z,46.57
2019-04-20T06:51:34.843Z,46.51
2019-04-20T06:54:43.163Z,46.09
2019-04-20T06:57:49.896Z,45.52
2019-04-20T07:00:44.503Z,44.80
2019-04-20T07:03:46.777Z,44.40
2019-04-20T07:06:35.575Z,44.12
2019-04-20T07:09:17.214Z,44.40
2019-04-20T07:12:18.662Z,43.70
2019-04-20T07:15:18.977Z,43.49
2019-04-20T07:18:36.816Z,42.73
2019-04-20T07:22:00.549Z,42.63
2019-04-20T07:24:40.291Z,42.51
2019-04-20T07:27:25.923Z,42.40
2019-04-20T07:30:16.243Z,42.56
2019-04-20T07:33:29.645Z,41.94
2019-04-20T07:36:19.900Z,41.16
2019-04-20T07:39:07.422Z,40.42
2019-04-20T07:42:03.963Z,40.81
2019-04-20T07:44:55.469Z,39.80
2019-04-20T07:50:42.112Z,39.92
2019-04-20T07:53:45.271Z,39.44
2019-04-20T07:56:45.641Z,38.60
2019-04-20T07:59:23.125Z,38.40
2019-04-20T08:02:59.989Z,38.28
2019-04-20T08:06:01.088Z,38.77
2019-04-20T08:08:55.893Z,38.45
2019-04-20T08:11:54.911Z,37.62
2019-04-20T08:14:46.759Z,37.92
2019-04-20T08:17:50.960Z,37.44
2019-04-20T08:20:48.145Z,37.45
2019-04-20T08:23:28.524Z,36.21
2019-04-20T08:26:09.047Z,35.99
2019-04-20T08:29:20.164Z,36.94
2019-04-20T08:32:23.112Z,36.15
2019-04-20T08:35:28.888Z,36.80
2019-04-20T08:39:09.118Z,35.88
2019-04-20T08:41:16.897Z,34.99
2019-04-20T08:44:48.473Z,34.71
2019-04-20T08:47:30.568Z,36.23
2019-04-20T08:50:16.470Z,36.86
2019-04-20T08:53:16.012Z,35.99
2019-04-20T08:55:46.620Z,35.86
2019-04-20T08:58:20.353Z,35.19
2019-04-20T09:01:14.040Z,34.89
2019-04-20T09:04:11.113Z,35.21
2019-04-20T09:07:03.997Z,35.76
2019-04-20T09:10:25.621Z,34.22
2019-04-20T09:13:15.894Z,35.55
2019-04-20T09:16:13.040Z,34.51
2019-04-20T09:19:05.928Z,35.22
2019-04-20T09:22:01.409Z,34.33
2019-04-20T09:25:16.130Z,34.09
2019-04-20T09:27:40.884Z,33.88
2019-04-20T09:30:54.683Z,33.75
2019-04-20T09:34:21.652Z,33.95
2019-04-20T09:37:24.774Z,33.13
2019-04-20T09:40:26.952Z,32.92
2019-04-20T09:43:23.815Z,32.53
2019-04-20T09:46:39.339Z,32.30
2019-04-20T09:49:40.298Z,33.93
2019-04-20T09:52:29.028Z,33.09
2019-04-20T09:55:21.652Z,32.50
2019-04-20T09:58:12.311Z,31.77
2019-04-20T10:01:19.028Z,34.53
2019-04-20T10:03:55.053Z,32.72
2019-04-20T10:06:47.563Z,30.90
2019-04-20T10:09:45.639Z,31.10
2019-04-20T10:12:48.210Z,32.01
2019-04-20T10:15:35.481Z,30.57
2019-04-20T10:18:23.727Z,32.00
2019-04-20T10:21:11.755Z,30.79
2019-04-20T10:24:01.080Z,30.41
2019-04-20T10:27:08.352Z,29.88
2019-04-20T10:30:05.895Z,30.60
2019-04-20T10:32:54.009Z,30.53
2019-04-20T10:35:41.366Z,29.71
2019-04-20T10:38:35.884Z,29.65
2019-04-20T10:41:37.258Z,29.35
2019-04-20T10:44:32.711Z,28.66
2019-04-20T10:47:41.076Z,28.45
2019-04-20T10:50:49.356Z,29.82
2019-04-20T10:53:38.323Z,29.20
2019-04-20T10:56:27.539Z,28.88
2019-04-20T10:59:37.050Z,28.15
2019-04-20T11:02:26.009Z,28.89
2019-04-20T11:05:14.788Z,29.04
2019-04-20T11:08:04.345Z,28.87
2019-04-20T11:11:03.493Z,28.04
2019-04-20T11:13:43.824Z,28.56
2019-04-20T11:16:32.774Z,28.05
2019-04-20T11:19:23.232Z,26.94
2019-04-20T11:22:32.483Z,27.37
2019-04-20T11:25:22.082Z,27.28
2019-04-20T11:28:12.340Z,27.76
2019-04-20T11:31:01.912Z,26.72
2019-04-20T11:33:56.261Z,27.25
2019-04-20T11:36:45.452Z,26.72
2019-04-20T11:39:43.124Z,27.20
2019-04-20T11:42:47.934Z,26.31
2019-04-20T11:45:36.511Z,26.96
2019-04-20T11:48:39.895Z,27.37
2019-04-20T11:51:29.809Z,26.17
2019-04-20T11:54:34.546Z,27.35
2019-04-20T11:57:43.142Z,25.96
2019-04-20T12:00:53.939Z,25.69
2019-04-20T12:03:46.289Z,24.72
2019-04-20T12:06:25.227Z,24.28
2019-04-20T12:09:22.449Z,26.14
2019-04-20T12:12:40.019Z,25.37
2019-04-20T12:15:20.132Z,24.15
2019-04-20T12:18:13.753Z,25.57
2019-04-20T12:21:05.377Z,24.60
2019-04-20T12:23:56.327Z,23.05
2019-04-20T12:26:46.892Z,24.20
2019-04-20T12:29:35.944Z,23.02
2019-04-20T12:32:29.534Z,24.02
2019-04-20T12:35:14.579Z,22.23
2019-04-20T12:38:03.457Z,23.36
2019-04-20T12:41:03.136Z,22.55
2019-04-20T12:43:51.867Z,22.21
2019-04-20T12:46:41.486Z,22.49
2019-04-20T12:49:31.632Z,22.83
2019-04-20T12:52:24.146Z,22.54
2019-04-20T12:55:14.302Z,22.56
2019-04-20T12:58:05.622Z,22.74
2019-04-20T13:00:54.723Z,22.55
2019-04-20T13:03:43.742Z,22.39
2019-04-20T13:06:34.076Z,22.18
2019-04-20T13:09:38.812Z,23.19
2019-04-20T13:13:05.044Z,21.84
2019-04-20T13:16:12.672Z,22.03
2019-04-20T13:19:03.848Z,22.73
2019-04-20T13:21:54.704Z,22.09
2019-04-20T13:24:43.636Z,20.81
2019-04-20T13:27:32.775Z,22.04
2019-04-20T13:30:23.754Z,21.61
2019-04-20T13:33:31.615Z,21.15
2019-04-20T13:36:22.052Z,21.25
2019-04-20T13:39:10.266Z,21.19
2019-04-20T13:42:12.109Z,21.30
2019-04-20T13:44:54.938Z,20.84
2019-04-20T13:47:45.185Z,20.11
2019-04-20T13:50:51.850Z,21.40
2019-04-20T13:53:41.305Z,20.59
2019-04-20T13:56:30.168Z,20.52
2019-04-20T13:59:53.238Z,19.69
2019-04-20T14:02:46.826Z,20.15
2019-04-20T14:05:35.478Z,20.30
2019-04-20T14:08:27.429Z,20.17
2019-04-20T14:11:17.698Z,18.91
2019-04-20T14:14:08.271Z,19.83
2019-04-20T14:16:57.392Z,19.54
2019-04-20T14:19:47.388Z,18.62
2019-04-20T14:22:39.033Z,19.68
2019-04-20T14:25:29.069Z,19.01
2019-04-20T14:28:20.929Z,18.98
2019-04-20T14:31:09.945Z,18.08
2019-04-20T14:33:59.133Z,17.77
2019-04-20T14:36:48.803Z,17.22
2019-04-20T14:39:46.035Z,17.67
2019-04-20T14:42:42.331Z,16.88
2019-04-20T14:45:28.946Z,16.16
2019-04-20T14:48:18.611Z,16.63
2019-04-20T14:51:07.748Z,16.09
2019-04-20T14:53:56.271Z,14.41
2019-04-20T14:56:45.456Z,15.37
2019-04-20T14:59:37.868Z,14.73
2019-04-20T15:02:30.200Z,14.12
2019-04-20T15:05:19.411Z,13.92
2019-04-20T15:08:08.948Z,14.78
2019-04-20T15:10:58.810Z,12.90
2019-04-20T15:13:48.945Z,12.42
2019-04-20T15:16:38.565Z,11.93
2019-04-20T15:19:47.523Z,11.86
2019-04-20T15:22:43.454Z,11.91
2019-04-20T15:25:32.108Z,10.90
2019-04-20T15:28:20.638Z,12.04
2019-04-20T15:31:10.075Z,10.95
2019-04-20T15:33:59.360Z,10.16
2019-04-20T15:36:47.478Z,10.98
2019-04-20T15:39:37.032Z,10.70
2019-04-20T15:42:27.508Z,10.64
2019-04-20T15:45:17.012Z,11.15
2019-04-20T15:48:06.346Z,10.31
2019-04-20T15:50:56.103Z,10.07
2019-04-20T15:53:45.534Z,9.51
2019-04-20T15:56:35.364Z,10.20
2019-04-20T15:59:24.406Z,10.65
2019-04-20T16:02:31.581Z,10.09
2019-04-20T16:05:51.511Z,10.51
2019-04-20T16:08:42.189Z,9.89
2019-04-20T16:11:31.354Z,9.76
2019-04-20T16:14:21.623Z,10.63
2019-04-20T16:17:12.346Z,10.47
2019-04-20T16:20:07.924Z,10.84
2019-04-20T16:22:50.442Z,11.23
2019-04-20T16:25:59.548Z,11.78
2019-04-20T16:28:48.272Z,12.59
2019-04-20T16:31:36.766Z,12.99
2019-04-20T16:34:25.474Z,13.33
2019-04-20T16:37:14.793Z,13.95
2019-04-20T16:40:05.713Z,13.93
2019-04-20T16:42:54.354Z,14.21
2019-04-20T16:45:43.588Z,14.46
2019-04-20T16:48:32.319Z,14.50
2019-04-20T16:51:21.107Z,14.65
2019-04-20T16:54:10.124Z,14.86
2019-04-20T16:57:00.410Z,15.24
2019-04-20T16:59:52.987Z,14.98
2019-04-20T17:02:40.400Z,15.71
2019-04-20T17:05:29.673Z,15.41
2019-04-20T17:08:18.750Z,15.81
2019-04-20T17:11:07.887Z,16.12
2019-04-20T17:13:59.854Z,15.35
2019-04-20T17:16:46.922Z,15.96
2019-04-20T17:19:37.395Z,16.36
2019-04-20T17:22:29.718Z,16.46
2019-04-20T17:25:19.754Z,16.13
2019-04-20T17:28:26.854Z,16.02
2019-04-20T17:31:27.223Z,16.00
2019-04-20T17:34:36.154Z,15.89
2019-04-20T17:37:08.816Z,16.18
2019-04-20T17:40:21.000Z,16.33
2019-04-20T17:42:59.054Z,16.42
2019-04-20T17:45:49.771Z,16.74
2019-04-20T17:48:39.929Z,16.65
2019-04-20T17:51:39.648Z,16.64
2019-04-20T17:54:23.449Z,16.87
2019-04-20T17:57:13.002Z,17.36
2019-04-20T18:00:12.149Z,17.89
2019-04-20T18:03:14.807Z,17.16
2019-04-20T18:06:12.699Z,17.34
2019-04-20T18:08:57.812Z,17.55
2019-04-20T18:11:40.325Z,17.63
2019-04-20T18:14:37.431Z,18.75
2019-04-20T18:17:56.275Z,18.42
2019-04-20T18:20:45.122Z,18.92
2019-04-20T18:23:38.442Z,19.10
2019-04-20T18:26:45.354Z,19.52
2019-04-20T18:29:37.252Z,20.77
2019-04-20T18:32:15.545Z,20.41
2019-04-20T18:35:10.417Z,20.80
2019-04-20T18:38:05.622Z,22.02
2019-04-20T18:40:56.007Z,21.51
2019-04-20T18:43:44.769Z,21.38
2019-04-20T18:46:55.537Z,21.65
2019-04-20T18:49:35.087Z,22.18
2019-04-20T18:52:11.576Z,22.37
2019-04-20T18:55:01.705Z,22.00
2019-04-20T18:57:50.969Z,22.39
2019-04-20T19:00:44.467Z,22.83
2019-04-20T19:03:35.754Z,23.38
2019-04-20T19:06:21.248Z,22.93
2019-04-20T19:09:16.750Z,23.48
2019-04-20T19:12:03.901Z,23.19
2019-04-20T19:15:12.067Z,23.58
2019-04-20T19:18:06.303Z,24.03
2019-04-20T19:20:55.071Z,24.38
2019-04-20T19:23:53.482Z,24.29
2019-04-20T19:26:34.346Z,24.92
2019-04-20T19:29:34.408Z,25.01
2019-04-20T19:32:30.269Z,24.85
2019-04-20T19:35:14.527Z,24.80
2019-04-20T19:38:06.354Z,25.23
2019-04-20T19:40:55.887Z,24.69
2019-04-20T19:43:49.987Z,25.51
2019-04-20T19:47:01.628Z,25.42
2019-04-20T19:49:27.682Z,25.84
2019-04-20T19:52:30.917Z,25.66
2019-04-20T19:55:14.275Z,26.24
2019-04-20T19:57:59.101Z,27.09
2019-04-20T20:00:50.476Z,26.82
2019-04-20T20:03:37.662Z,26.72
2019-04-20T20:06:32.956Z,27.89
2019-04-20T20:09:18.206Z,27.42
2019-04-20T20:12:12.596Z,27.24
2019-04-20T20:14:57.741Z,28.01
2019-04-20T20:18:06.722Z,27.68
2019-04-20T20:20:57.767Z,28.06
2019-04-20T20:23:27.932Z,28.22
2019-04-20T20:26:23.050Z,28.48
2019-04-20T20:29:17.011Z,28.32
2019-04-20T20:32:13.270Z,28.93
2019-04-20T20:34:56.143Z,29.25
2019-04-20T20:37:45.724Z,29.25
2019-04-20T20:40:32.712Z,29.15
2019-04-20T20:43:30.624Z,29.03
2019-04-20T20:46:19.692Z,29.17
2019-04-20T20:49:16.201Z,29.17
2019-04-20T20:52:06.825Z,29.13
2019-04-20T20:54:49.760Z,29.45
2019-04-20T20:57:40.908Z,29.89
2019-04-20T21:00:34.409Z,29.89
2019-04-20T21:03:20.390Z,29.48
2019-04-20T21:06:00.554Z,30.46
2019-04-20T21:08:53.727Z,29.72
2019-04-20T21:11:40.199Z,30.07
2019-04-20T21:14:31.531Z,29.77
2019-04-20T21:17:23.709Z,29.94
2019-04-20T21:20:20.396Z,30.50
2019-04-20T21:23:15.362Z,30.60
2019-04-20T21:26:12.748Z,30.96
2019-04-20T21:28:59.657Z,31.21
2019-04-20T21:31:56.826Z,31.51
2019-04-20T21:34:44.553Z,31.29
2019-04-20T21:37:29.024Z,31.24
2019-04-20T21:40:27.751Z,31.25
2019-04-20T21:43:09.495Z,32.27
2019-04-20T21:46:03.201Z,31.67
2019-04-20T21:48:59.527Z,31.54
2019-04-20T21:51:49.204Z,32.35
2019-04-20T21:54:29.836Z,32.82
2019-04-20T21:57:20.028Z,33.15
2019-04-20T22:00:25.102Z,33.54
2019-04-20T22:03:09.864Z,33.78
2019-04-20T22:06:04.910Z,33.70
2019-04-20T22:08:59.859Z,33.62
2019-04-20T22:11:45.622Z,34.37
2019-04-20T22:14:35.651Z,34.86
2019-04-20T22:17:28.596Z,34.68
2019-04-20T22:20:23.263Z,34.79
2019-04-20T22:23:16.818Z,35.08
2019-04-20T22:26:10.340Z,35.51
2019-04-20T22:28:45.568Z,36.02
2019-04-20T22:31:35.978Z,36.15
2019-04-20T22:34:28.088Z,36.34
2019-04-20T22:37:22.979Z,36.40
2019-04-20T22:40:06.956Z,37.13
2019-04-20T22:43:00.120Z,37.23
2019-04-20T22:45:52.027Z,36.98
2019-04-20T22:48:51.038Z,37.12
2019-04-20T22:51:39.916Z,37.72
2019-04-20T22:54:35.620Z,37.69
2019-04-20T22:57:19.330Z,37.85
2019-04-20T23:00:03.485Z,38.10
2019-04-20T23:02:49.070Z,38.17
2019-04-20T23:05:38.639Z,38.19
2019-04-20T23:08:26.974Z,38.36
2019-04-20T23:11:21.611Z,38.73
2019-04-20T23:14:06.561Z,38.72
2019-04-20T23:16:57.381Z,38.54
2019-04-20T23:19:49.409Z,38.97
2019-04-20T23:22:40.881Z,39.31
2019-04-20T23:25:27.099Z,39.15
2019-04-20T23:28:18.014Z,39.93
2019-04-20T23:31:11.719Z,39.63
2019-04-20T23:33:56.271Z,39.55
2019-04-20T23:36:48.535Z,40.05
2019-04-20T23:39:37.356Z,39.93
2019-04-20T23:42:34.890Z,40.26
2019-04-20T23:45:52.368Z,40.47
2019-04-20T23:48:48.089Z,40.19
2019-04-20T23:52:00.682Z,40.47
2019-04-20T23:54:33.148Z,40.32
2019-04-20T23:57:19.828Z,40.28
